Time;durP1;ratioP1;P1;durP2;ratioP2;P2;SDS_P1;SDS_P2;PMS_P1;PMS_P2;Temp;Humidity;BMP_temperature;BMP_pressure;BME280_temperature;BME280_humidity;BME280_pressure;Samples;Min_cycle;Max_cycle;Signal;HPM_P1;HPM_P2
2021/06/25 05:42:45;;;;;;;28.65;7.72;;;;;;;;;;4959614;23;20448;-64
2021/06/25 05:45:12;;;;;;;32.95;7.22;;;;;;;;;;4934555;29;20083;-62
2021/06/25 05:47:38;;;;;;;32.00;8.13;;;;;;;;;;4933890;29;20020;-68
2021/06/25 05:50:04;;;;;;;31.88;7.20;;;;;;;;;;4934453;29;20436;-63
2021/06/25 05:52:31;;;;;;;36.40;8.75;;;;;;;;;;4934497;29;20028;-68
2021/06/25 05:54:57;;;;;;;33.92;11.25;;;;;;;;;;4917329;29;20032;-71
2021/06/25 05:57:23;;;;;;;36.95;9.35;;;;;;;;;;4933918;29;20039;-71
2021/06/25 05:59:49;;;;;;;41.47;9.02;;;;;;;;;;4934208;29;20484;-65
2021/06/25 06:02:15;;;;;;;35.95;8.27;;;;;;;;;;4934234;29;20036;-67
2021/06/25 06:04:41;;;;;;;28.70;6.88;;;;;;;;;;4934214;29;20019;-66
2021/06/25 06:07:10;;;;;;;28.00;6.70;;;;;;;;;;4934411;29;20095;-71
2021/06/25 06:09:36;;;;;;;36.88;7.47;;;;;;;;;;4934264;29;20062;-71
2021/06/25 06:12:02;;;;;;;36.03;7.65;;;;;;;;;;4934736;29;20040;-68
2021/06/25 06:14:28;;;;;;;34.67;7.53;;;;;;;;;;4934054;29;20027;-64
2021/06/25 06:16:55;;;;;;;36.60;8.40;;;;;;;;;;4934654;29;20130;-66
2021/06/25 06:19:21;;;;;;;35.25;9.48;;;;;;;;;;4933702;29;20031;-65
2021/06/25 06:33:06;;;;;;;33.00;6.55;;;;;;;;;;4874644;29;20779;-72
2021/06/25 06:35:32;;;;;;;31.13;7.00;;;;;;;;;;4873116;29;20045;-72
2021/06/25 06:38:02;;;;;;;31.48;6.85;;;;;;;;;;4873781;29;20525;-71
2021/06/25 06:40:29;;;;;;;36.33;8.25;;;;;;;;;;4873571;29;20087;-70
2021/06/25 06:42:55;;;;;;;28.73;7.13;;;;;;;;;;4854953;29;20049;-72
2021/06/25 06:45:21;;;;;;;35.50;7.88;;;;;;;;;;4855067;29;20025;-70
2021/06/25 06:47:47;;;;;;;31.70;7.05;;;;;;;;;;4854949;29;20124;-70
2021/06/25 06:50:14;;;;;;;36.05;7.03;;;;;;;;;;4858373;29;20060;-70
2021/06/25 06:52:44;;;;;;;34.22;7.20;;;;;;;;;;4855036;29;20080;-73
2021/06/25 06:55:12;;;;;;;37.50;6.97;;;;;;;;;;4854403;29;20037;-73
2021/06/25 06:57:38;;;;;;;32.83;6.88;;;;;;;;;;4855140;29;20426;-71
2021/06/25 07:00:05;;;;;;;31.10;6.60;;;;;;;;;;4856197;29;20506;-70
2021/06/25 07:02:32;;;;;;;43.30;7.03;;;;;;;;;;4892272;29;20045;-72
2021/06/25 07:04:58;;;;;;;27.77;7.03;;;;;;;;;;4895454;29;20029;-71
2021/06/25 07:07:24;;;;;;;28.70;7.25;;;;;;;;;;4895455;29;20024;-67
2021/06/25 07:09:50;;;;;;;35.78;7.28;;;;;;;;;;4895444;29;20063;-73
2021/06/25 07:12:16;;;;;;;34.30;7.57;;;;;;;;;;4895492;29;20037;-73
2021/06/25 07:14:42;;;;;;;37.17;7.28;;;;;;;;;;4895644;29;20031;-72
2021/06/25 07:17:08;;;;;;;38.40;6.82;;;;;;;;;;4895567;29;20442;-71
2021/06/25 07:19:34;;;;;;;41.08;8.23;;;;;;;;;;4895291;29;20811;-70
2021/06/25 07:22:00;;;;;;;32.00;8.07;;;;;;;;;;4895108;29;20107;-70
2021/06/25 07:24:26;;;;;;;40.78;8.57;;;;;;;;;;4895334;29;20536;-73
2021/06/25 07:26:52;;;;;;;42.70;7.82;;;;;;;;;;4895025;29;20044;-72
2021/06/25 07:29:18;;;;;;;29.08;6.47;;;;;;;;;;4895563;29;20063;-69
2021/06/25 07:31:45;;;;;;;35.80;8.77;;;;;;;;;;4895134;29;20425;-72
2021/06/25 07:34:11;;;;;;;41.88;9.50;;;;;;;;;;4894936;29;20033;-68
2021/06/25 07:36:37;;;;;;;35.78;8.07;;;;;;;;;;4893055;29;20025;-73
2021/06/25 07:39:06;;;;;;;31.83;8.02;;;;;;;;;;4895290;29;20099;-68
2021/06/25 07:41:32;;;;;;;31.65;6.90;;;;;;;;;;4903337;29;20519;-71
2021/06/25 07:43:58;;;;;;;43.80;7.70;;;;;;;;;;4914140;29;20035;-73
2021/06/25 07:46:25;;;;;;;39.50;7.53;;;;;;;;;;4914422;29;20027;-70
2021/06/25 07:48:51;;;;;;;41.63;7.72;;;;;;;;;;4913951;29;20432;-72
2021/06/25 07:51:17;;;;;;;28.38;6.70;;;;;;;;;;4914602;29;20027;-71
2021/06/25 07:53:43;;;;;;;26.70;6.82;;;;;;;;;;4913965;29;20043;-72
2021/06/25 07:56:09;;;;;;;40.70;8.52;;;;;;;;;;4915868;29;20028;-70
2021/06/25 07:58:35;;;;;;;28.83;7.45;;;;;;;;;;4918243;29;20487;-71
2021/06/25 08:01:01;;;;;;;36.15;9.15;;;;;;;;;;4917735;29;20028;-70
2021/06/25 08:03:27;;;;;;;42.67;9.27;;;;;;;;;;4916993;29;20059;-71
2021/06/25 08:05:54;;;;;;;34.50;8.55;;;;;;;;;;4917299;29;20031;-71
2021/06/25 08:08:20;;;;;;;41.22;8.50;;;;;;;;;;4916866;29;20106;-75
2021/06/25 08:10:46;;;;;;;31.35;7.60;;;;;;;;;;4916993;29;20024;-71
2021/06/25 08:13:12;;;;;;;34.65;7.95;;;;;;;;;;4917030;29;20511;-72
2021/06/25 08:15:39;;;;;;;38.03;7.38;;;;;;;;;;4916421;29;20016;-71
2021/06/25 08:18:05;;;;;;;37.90;7.65;;;;;;;;;;4917168;29;20092;-71
2021/06/25 08:20:31;;;;;;;35.95;7.78;;;;;;;;;;4916615;29;20016;-71
2021/06/25 08:22:57;;;;;;;38.40;7.68;;;;;;;;;;4916693;29;20032;-73
2021/06/25 08:25:24;;;;;;;36.47;7.95;;;;;;;;;;4916218;29;20092;-72
2021/06/25 08:27:50;;;;;;;33.17;7.40;;;;;;;;;;4916581;29;20039;-71
2021/06/25 08:30:17;;;;;;;33.25;6.20;;;;;;;;;;4916690;29;20024;-72
2021/06/25 08:32:44;;;;;;;38.45;7.15;;;;;;;;;;4916403;29;20829;-71
2021/06/25 08:35:10;;;;;;;35.40;7.75;;;;;;;;;;4917302;29;20039;-69
2021/06/25 08:37:36;;;;;;;33.53;7.05;;;;;;;;;;4916722;29;20032;-74
2021/06/25 08:40:04;;;;;;;36.22;7.47;;;;;;;;;;4916207;29;20054;-72
2021/06/25 08:42:30;;;;;;;34.25;6.88;;;;;;;;;;4916134;29;20075;-72
2021/06/25 08:44:59;;;;;;;35.03;8.05;;;;;;;;;;4916288;29;20024;-74
2021/06/25 08:47:26;;;;;;;48.67;9.25;;;;;;;;;;4916591;29;20070;-74
2021/06/25 08:49:53;;;;;;;33.65;7.22;;;;;;;;;;4916596;29;20297;-75
2021/06/25 08:52:19;;;;;;;35.75;7.78;;;;;;;;;;4900089;29;20044;-73
2021/06/25 08:54:45;;;;;;;45.40;8.05;;;;;;;;;;4916946;29;20384;-73
2021/06/25 08:57:11;;;;;;;42.17;7.70;;;;;;;;;;4916631;29;20118;-73
2021/06/25 08:59:37;;;;;;;31.00;7.00;;;;;;;;;;4916800;29;20020;-73
2021/06/25 09:02:04;;;;;;;39.55;7.38;;;;;;;;;;4917360;29;20487;-73
2021/06/25 09:04:30;;;;;;;37.63;7.72;;;;;;;;;;4917122;29;20125;-72
2021/06/25 09:06:56;;;;;;;39.25;7.78;;;;;;;;;;4916707;29;20039;-74
2021/06/25 09:09:22;;;;;;;33.17;7.82;;;;;;;;;;4916483;29;20032;-74
2021/06/25 09:12:07;;;;;;;34.50;8.02;;;;;;;;;;4916610;29;20051;-73
2021/06/25 09:14:52;;;;;;;39.45;7.43;;;;;;;;;;4899404;29;20563;-73
2021/06/25 09:17:18;;;;;;;34.85;8.05;;;;;;;;;;4916910;29;20373;-73
2021/06/25 09:19:44;;;;;;;35.08;7.20;;;;;;;;;;4916559;29;20114;-73
2021/06/25 09:22:10;;;;;;;40.67;7.85;;;;;;;;;;4916734;29;20062;-74
2021/06/25 09:24:36;;;;;;;32.78;7.35;;;;;;;;;;4916668;29;20024;-73
2021/06/25 09:27:09;;;;;;;33.83;7.22;;;;;;;;;;4915839;29;20036;-72
2021/06/25 09:29:39;;;;;;;40.20;7.25;;;;;;;;;;4916656;29;20047;-73
2021/06/25 09:32:07;;;;;;;39.20;8.25;;;;;;;;;;4916386;29;20163;-73
2021/06/25 09:34:33;;;;;;;38.42;7.60;;;;;;;;;;4916404;29;20495;-75
2021/06/25 09:37:04;;;;;;;36.78;8.02;;;;;;;;;;4916572;29;20468;-74
2021/06/25 09:39:30;;;;;;;37.88;7.60;;;;;;;;;;4916452;29;20032;-74
2021/06/25 09:41:56;;;;;;;37.38;7.05;;;;;;;;;;4916203;29;20060;-74
2021/06/25 09:44:24;;;;;;;41.00;7.97;;;;;;;;;;4916730;29;20480;-73
2021/06/25 09:46:51;;;;;;;41.17;7.45;;;;;;;;;;4916643;29;20114;-74
2021/06/25 09:49:23;;;;;;;36.88;7.22;;;;;;;;;;4916247;29;20547;-73
2021/06/25 09:51:59;;;;;;;39.92;7.07;;;;;;;;;;4915878;29;20024;-73
2021/06/25 09:54:26;;;;;;;32.80;7.05;;;;;;;;;;4915745;29;20496;-74
2021/06/25 09:56:59;;;;;;;33.40;6.82;;;;;;;;;;4915570;29;20040;-73
2021/06/25 09:59:38;;;;;;;40.72;6.88;;;;;;;;;;4915156;29;20060;-73
2021/06/25 10:02:24;;;;;;;38.50;7.68;;;;;;;;;;4899173;29;20087;-73
2021/06/25 10:04:50;;;;;;;29.58;7.75;;;;;;;;;;4916078;29;20404;-73
2021/06/25 10:07:17;;;;;;;30.95;6.50;;;;;;;;;;4915728;29;20495;-73
2021/06/25 10:09:44;;;;;;;41.65;7.72;;;;;;;;;;4915994;29;20038;-72
2021/06/25 10:12:11;;;;;;;35.38;8.23;;;;;;;;;;4915183;29;20110;-73
2021/06/25 10:14:38;;;;;;;33.00;7.43;;;;;;;;;;4916402;29;20079;-72
2021/06/25 10:17:05;;;;;;;38.17;7.57;;;;;;;;;;4915531;29;20103;-72
2021/06/25 10:19:38;;;;;;;34.47;7.75;;;;;;;;;;4915564;29;20507;-73
2021/06/25 10:22:05;;;;;;;36.28;7.90;;;;;;;;;;4915940;29;20024;-72
2021/06/25 10:24:33;;;;;;;35.95;7.47;;;;;;;;;;4915332;29;20028;-72
2021/06/25 10:27:01;;;;;;;36.97;7.03;;;;;;;;;;4912096;29;20039;-71
2021/06/25 10:29:27;;;;;;;32.50;6.88;;;;;;;;;;4914822;29;20032;-70
2021/06/25 10:31:56;;;;;;;37.65;7.30;;;;;;;;;;4915523;29;20032;-72
2021/06/25 10:34:22;;;;;;;35.00;8.38;;;;;;;;;;4915638;29;20032;-72
2021/06/25 10:36:49;;;;;;;28.98;7.30;;;;;;;;;;4915258;29;20488;-72
2021/06/25 10:39:15;;;;;;;35.58;7.15;;;;;;;;;;4897628;29;20084;-73
2021/06/25 10:41:50;;;;;;;43.97;7.82;;;;;;;;;;4914912;29;20155;-74
2021/06/25 10:44:35;;;;;;;45.45;7.57;;;;;;;;;;4915301;29;20036;-71
2021/06/25 10:47:18;;;;;;;32.50;6.90;;;;;;;;;;4915259;29;20481;-73
2021/06/25 10:50:02;;;;;;;38.97;7.15;;;;;;;;;;4914643;29;20040;-72
2021/06/25 10:52:28;;;;;;;38.67;7.32;;;;;;;;;;4898071;29;20114;-72
2021/06/25 10:55:05;;;;;;;35.22;7.03;;;;;;;;;;4914528;29;20043;-73
2021/06/25 10:57:32;;;;;;;28.83;6.63;;;;;;;;;;4914766;29;20039;-74
2021/06/25 10:59:58;;;;;;;33.80;7.18;;;;;;;;;;4914693;29;20024;-73
2021/06/25 11:02:43;;;;;;;33.05;7.50;;;;;;;;;;4915144;29;20039;-72
2021/06/25 11:05:22;;;;;;;36.08;8.25;;;;;;;;;;4915350;29;20353;-72
2021/06/25 11:07:49;;;;;;;33.72;7.78;;;;;;;;;;4915226;29;20035;-71
2021/06/25 11:10:34;;;;;;;36.85;7.93;;;;;;;;;;4915148;29;20377;-71
2021/06/25 11:13:12;;;;;;;26.92;7.07;;;;;;;;;;4915265;29;20411;-72
2021/06/25 11:15:39;;;;;;;34.97;6.50;;;;;;;;;;4915072;29;20038;-73
2021/06/25 11:18:17;;;;;;;33.20;7.32;;;;;;;;;;4915144;29;20044;-73
2021/06/25 11:20:54;;;;;;;36.45;7.88;;;;;;;;;;4915369;29;20454;-73
2021/06/25 11:23:23;;;;;;;36.33;7.25;;;;;;;;;;4915329;29;20034;-75
2021/06/25 11:25:51;;;;;;;35.80;7.80;;;;;;;;;;4915193;29;20059;-73
2021/06/25 11:28:26;;;;;;;31.67;7.35;;;;;;;;;;4914155;29;20119;-72
2021/06/25 11:30:52;;;;;;;40.83;7.00;;;;;;;;;;4918977;29;20036;-73
2021/06/25 11:33:25;;;;;;;25.20;6.93;;;;;;;;;;4916975;29;20358;-72
2021/06/25 11:35:52;;;;;;;34.90;6.80;;;;;;;;;;4916793;29;20036;-73
2021/06/25 11:38:18;;;;;;;39.20;7.13;;;;;;;;;;4918844;29;20456;-73
2021/06/25 11:40:50;;;;;;;37.88;6.88;;;;;;;;;;4918376;29;20075;-73
2021/06/25 11:43:19;;;;;;;39.65;7.72;;;;;;;;;;4917996;29;20058;-74
2021/06/25 11:45:51;;;;;;;33.80;6.85;;;;;;;;;;4918743;29;20039;-73
2021/06/25 11:48:18;;;;;;;42.15;7.82;;;;;;;;;;4918396;29;20024;-73
2021/06/25 11:50:44;;;;;;;33.03;7.32;;;;;;;;;;4918917;29;20024;-74
2021/06/25 11:53:10;;;;;;;33.85;7.43;;;;;;;;;;4919161;29;20052;-74
2021/06/25 11:55:43;;;;;;;39.60;7.70;;;;;;;;;;4918137;29;20032;-72
2021/06/25 11:58:18;;;;;;;34.80;7.30;;;;;;;;;;4917618;29;20440;-75
2021/06/25 12:00:44;;;;;;;38.55;7.82;;;;;;;;;;4918041;29;20033;-74
2021/06/25 12:03:10;;;;;;;35.90;7.55;;;;;;;;;;4918256;29;20032;-73
2021/06/25 12:05:39;;;;;;;35.58;6.80;;;;;;;;;;4918108;29;20044;-74
2021/06/25 12:08:16;;;;;;;38.70;7.50;;;;;;;;;;4917942;29;20432;-72
2021/06/25 12:10:59;;;;;;;31.98;6.30;;;;;;;;;;4917971;29;20062;-74
2021/06/25 12:13:26;;;;;;;38.15;7.65;;;;;;;;;;4917788;29;20503;-72
2021/06/25 12:15:53;;;;;;;37.90;7.05;;;;;;;;;;4917805;29;20024;-73
2021/06/25 12:18:22;;;;;;;40.28;7.75;;;;;;;;;;4917670;29;20040;-73
2021/06/25 12:20:49;;;;;;;43.42;7.72;;;;;;;;;;4917295;29;20111;-73
2021/06/25 12:23:17;;;;;;;33.70;6.47;;;;;;;;;;4917552;29;20048;-75
2021/06/25 12:25:52;;;;;;;38.65;7.13;;;;;;;;;;4917080;29;20032;-73
2021/06/25 12:28:22;;;;;;;40.85;8.82;;;;;;;;;;4917389;29;20036;-73
2021/06/25 12:30:53;;;;;;;29.88;6.85;;;;;;;;;;4917298;29;20024;-74
2021/06/25 12:33:28;;;;;;;34.58;7.63;;;;;;;;;;4917384;29;20032;-72
2021/06/25 12:35:55;;;;;;;44.72;7.93;;;;;;;;;;4917572;29;20024;-73
2021/06/25 12:38:22;;;;;;;39.30;6.68;;;;;;;;;;4917157;29;20091;-69
2021/06/25 12:40:48;;;;;;;36.78;8.23;;;;;;;;;;4916303;29;20032;-72
2021/06/25 12:43:19;;;;;;;31.90;6.85;;;;;;;;;;4916682;29;20096;-72
2021/06/25 12:45:53;;;;;;;36.65;7.25;;;;;;;;;;4916911;29;20396;-72
2021/06/25 12:48:32;;;;;;;35.58;7.60;;;;;;;;;;4916827;29;20090;-73
2021/06/25 12:51:09;;;;;;;37.33;7.45;;;;;;;;;;4916722;29;20072;-71
2021/06/25 12:53:36;;;;;;;36.30;6.65;;;;;;;;;;4916480;29;20492;-72
2021/06/25 12:56:08;;;;;;;33.53;6.85;;;;;;;;;;4915665;29;20043;-73
2021/06/25 12:58:39;;;;;;;30.10;7.00;;;;;;;;;;4899154;29;20049;-72
2021/06/25 13:01:06;;;;;;;34.17;7.50;;;;;;;;;;4916857;29;20025;-74
2021/06/25 13:03:33;;;;;;;39.88;8.43;;;;;;;;;;4917006;29;20028;-69
2021/06/25 13:05:59;;;;;;;32.80;7.35;;;;;;;;;;4916747;29;20032;-73
2021/06/25 13:08:29;;;;;;;32.47;7.18;;;;;;;;;;4916733;29;20034;-72
2021/06/25 13:10:56;;;;;;;37.33;7.43;;;;;;;;;;4915806;29;20036;-73
2021/06/25 13:13:27;;;;;;;35.28;6.72;;;;;;;;;;4916939;29;20026;-73
2021/06/25 13:15:53;;;;;;;33.90;6.80;;;;;;;;;;4916327;29;20060;-71
2021/06/25 13:18:21;;;;;;;31.13;6.90;;;;;;;;;;4899270;29;20036;-73
2021/06/25 13:21:05;;;;;;;27.60;7.05;;;;;;;;;;4916205;29;20028;-72
2021/06/25 13:23:32;;;;;;;36.33;7.05;;;;;;;;;;4915943;29;20032;-73
2021/06/25 13:26:08;;;;;;;31.95;7.13;;;;;;;;;;4899402;29;20020;-72
2021/06/25 13:28:34;;;;;;;30.23;7.78;;;;;;;;;;4915592;29;20419;-71
2021/06/25 13:31:05;;;;;;;36.55;7.15;;;;;;;;;;4916328;29;20056;-72
2021/06/25 13:33:39;;;;;;;35.78;8.10;;;;;;;;;;4916073;29;20028;-72
2021/06/25 13:36:09;;;;;;;27.10;6.97;;;;;;;;;;4897557;29;20147;-71
2021/06/25 13:38:35;;;;;;;39.78;8.07;;;;;;;;;;4915914;29;20036;-73
2021/06/25 13:41:06;;;;;;;31.83;7.72;;;;;;;;;;4915960;29;20032;-73
2021/06/25 13:43:32;;;;;;;41.50;7.63;;;;;;;;;;4915805;29;20044;-72
2021/06/25 13:46:11;;;;;;;39.70;8.40;;;;;;;;;;4915550;29;20075;-72
2021/06/25 13:48:38;;;;;;;37.40;6.60;;;;;;;;;;4915642;29;20488;-73
2021/06/25 13:51:05;;;;;;;31.65;8.20;;;;;;;;;;4915259;29;20028;-73
2021/06/25 13:53:33;;;;;;;30.17;7.47;;;;;;;;;;4915428;29;20028;-73
2021/06/25 13:56:00;;;;;;;36.78;7.75;;;;;;;;;;4914849;29;20056;-70
2021/06/25 13:58:27;;;;;;;36.17;7.35;;;;;;;;;;4913930;29;20377;-72
2021/06/25 14:00:57;;;;;;;35.80;6.95;;;;;;;;;;4914396;29;20107;-73
2021/06/25 14:03:25;;;;;;;37.03;8.05;;;;;;;;;;4915201;29;20036;-73
2021/06/25 14:05:58;;;;;;;35.45;7.20;;;;;;;;;;4911726;29;20040;-73
2021/06/25 14:08:24;;;;;;;37.97;7.93;;;;;;;;;;4915695;29;20416;-72
2021/06/25 14:10:55;;;;;;;30.33;7.00;;;;;;;;;;4915508;29;20063;-72
2021/06/25 14:13:34;;;;;;;36.05;7.50;;;;;;;;;;4915216;29;20028;-72
2021/06/25 14:16:00;;;;;;;36.03;7.15;;;;;;;;;;4897961;29;20039;-73
2021/06/25 14:18:28;;;;;;;32.30;7.25;;;;;;;;;;4915259;29;20127;-71
2021/06/25 14:20:54;;;;;;;42.38;7.75;;;;;;;;;;4915478;29;20083;-73
2021/06/25 14:23:20;;;;;;;32.33;6.82;;;;;;;;;;4915140;29;20111;-73
2021/06/25 14:25:47;;;;;;;28.88;6.65;;;;;;;;;;4915099;29;20039;-72
2021/06/25 14:28:23;;;;;;;33.80;7.65;;;;;;;;;;4915207;29;20083;-72
2021/06/25 14:30:49;;;;;;;27.90;7.03;;;;;;;;;;4915401;29;20028;-72
2021/06/25 14:33:15;;;;;;;30.17;7.60;;;;;;;;;;4915407;29;20032;-72
2021/06/25 14:35:41;;;;;;;36.80;8.43;;;;;;;;;;4915478;29;20024;-72
2021/06/25 14:38:07;;;;;;;43.38;9.38;;;;;;;;;;4915087;29;20032;-72
2021/06/25 14:40:33;;;;;;;36.38;8.45;;;;;;;;;;4914570;29;20040;-72
2021/06/25 14:42:59;;;;;;;38.05;8.30;;;;;;;;;;4914960;29;20494;-72
2021/06/25 14:45:25;;;;;;;32.65;6.97;;;;;;;;;;4915042;29;20137;-72
2021/06/25 14:47:51;;;;;;;31.88;7.22;;;;;;;;;;4897955;29;20032;-72
2021/06/25 14:50:18;;;;;;;46.05;8.18;;;;;;;;;;4914986;29;20027;-72
2021/06/25 14:52:44;;;;;;;44.00;6.97;;;;;;;;;;4915140;29;20032;-72
2021/06/25 14:55:10;;;;;;;37.92;6.50;;;;;;;;;;4915198;29;20107;-71
2021/06/25 14:57:36;;;;;;;35.00;6.13;;;;;;;;;;4914762;29;20036;-73
2021/06/25 15:00:06;;;;;;;32.50;5.82;;;;;;;;;;4915015;29;20027;-73
2021/06/25 15:02:32;;;;;;;30.35;5.00;;;;;;;;;;4915145;29;20042;-74
2021/06/25 15:04:58;;;;;;;28.35;5.25;;;;;;;;;;4914112;29;20421;-73
2021/06/25 15:07:25;;;;;;;26.88;4.97;;;;;;;;;;4909313;29;20052;-74
2021/06/25 15:09:51;;;;;;;25.17;5.68;;;;;;;;;;4910388;29;20028;-73
2021/06/25 15:12:17;;;;;;;33.67;6.10;;;;;;;;;;4911226;29;20496;-72
2021/06/25 15:14:43;;;;;;;25.67;6.22;;;;;;;;;;4910069;29;20107;-73
2021/06/25 15:17:09;;;;;;;25.98;6.90;;;;;;;;;;4912007;29;20032;-73
2021/06/25 15:19:35;;;;;;;21.60;5.57;;;;;;;;;;4914978;29;20091;-73
2021/06/25 15:22:02;;;;;;;20.30;5.18;;;;;;;;;;4914941;29;20036;-73
2021/06/25 15:24:28;;;;;;;17.48;4.53;;;;;;;;;;4914839;29;20063;-73
2021/06/25 15:26:54;;;;;;;24.85;4.63;;;;;;;;;;4914837;29;20028;-72
2021/06/25 15:29:23;;;;;;;24.45;4.40;;;;;;;;;;4914167;29;20059;-73
2021/06/25 15:31:49;;;;;;;22.48;4.68;;;;;;;;;;4913792;29;20123;-71
2021/06/25 15:34:16;;;;;;;22.70;4.35;;;;;;;;;;4915205;29;20033;-73
2021/06/25 15:36:43;;;;;;;19.30;4.20;;;;;;;;;;4915066;29;20032;-73
2021/06/25 15:39:10;;;;;;;16.35;4.70;;;;;;;;;;4915482;29;20032;-71
2021/06/25 15:41:37;;;;;;;15.80;3.78;;;;;;;;;;4914034;29;20052;-73
2021/06/25 15:44:03;;;;;;;19.95;4.20;;;;;;;;;;4913530;29;20135;-76
2021/06/25 15:46:29;;;;;;;19.38;4.30;;;;;;;;;;4896788;29;20059;-75
2021/06/25 15:48:56;;;;;;;20.95;4.68;;;;;;;;;;4913930;29;20028;-73
2021/06/25 15:51:22;;;;;;;23.85;4.80;;;;;;;;;;4897192;29;20746;-73
2021/06/25 15:53:48;;;;;;;16.55;4.57;;;;;;;;;;4914305;29;20029;-73
2021/06/25 15:56:14;;;;;;;20.17;3.70;;;;;;;;;;4914593;29;20115;-73
2021/06/25 15:58:40;;;;;;;20.05;4.63;;;;;;;;;;4913993;29;20067;-73
2021/06/25 16:01:06;;;;;;;20.25;3.90;;;;;;;;;;4914336;29;20032;-72
2021/06/25 16:03:32;;;;;;;19.88;4.25;;;;;;;;;;4914828;29;20067;-72
2021/06/25 16:05:58;;;;;;;16.75;4.28;;;;;;;;;;4897856;29;20466;-74
2021/06/25 16:11:12;;;;;;;18.17;3.85;;;;;;;;;;4915142;29;20107;-72
2021/06/25 16:13:38;;;;;;;18.25;3.95;;;;;;;;;;4913867;29;20028;-72
2021/06/25 16:16:05;;;;;;;19.80;4.13;;;;;;;;;;4915018;29;20441;-73
2021/06/25 16:18:32;;;;;;;18.58;4.80;;;;;;;;;;4916425;29;20077;-72
2021/06/25 16:20:58;;;;;;;20.95;4.60;;;;;;;;;;4917332;29;20040;-73
2021/06/25 16:23:25;;;;;;;22.23;3.78;;;;;;;;;;4916792;29;20127;-72
2021/06/25 16:25:51;;;;;;;13.80;3.67;;;;;;;;;;4917387;29;20036;-73
2021/06/25 16:28:17;;;;;;;18.80;3.90;;;;;;;;;;4917155;29;20032;-73
2021/06/25 16:30:44;;;;;;;20.83;4.78;;;;;;;;;;4918256;29;20024;-71
2021/06/25 16:33:10;;;;;;;18.63;3.72;;;;;;;;;;4917475;29;20038;-73
2021/06/25 16:35:36;;;;;;;20.55;5.22;;;;;;;;;;4917425;29;20028;-75
2021/06/25 16:38:02;;;;;;;20.90;4.45;;;;;;;;;;4915729;29;20036;-73
2021/06/25 16:40:28;;;;;;;28.60;5.30;;;;;;;;;;4917114;29;20080;-74
2021/06/25 16:42:54;;;;;;;20.80;4.60;;;;;;;;;;4916941;29;20091;-74
2021/06/25 16:45:21;;;;;;;19.95;4.88;;;;;;;;;;4916916;29;20024;-73
2021/06/25 16:47:47;;;;;;;20.45;4.10;;;;;;;;;;4916676;29;20062;-73
2021/06/25 16:50:13;;;;;;;17.02;3.95;;;;;;;;;;4917709;29;20159;-74
2021/06/25 16:52:39;;;;;;;17.70;4.28;;;;;;;;;;4916579;29;20043;-74
2021/06/25 16:55:06;;;;;;;19.73;4.15;;;;;;;;;;4916880;29;20035;-72
2021/06/25 16:57:32;;;;;;;15.45;4.13;;;;;;;;;;4916745;29;20040;-76
2021/06/25 16:59:58;;;;;;;25.02;4.57;;;;;;;;;;4915820;29;20036;-75
2021/06/25 17:02:24;;;;;;;13.85;4.43;;;;;;;;;;4913194;29;20115;-74
2021/06/25 17:04:51;;;;;;;18.45;4.55;;;;;;;;;;4911394;29;20050;-75
2021/06/25 17:07:17;;;;;;;23.52;4.80;;;;;;;;;;4908540;29;20035;-75
2021/06/25 17:09:43;;;;;;;23.85;5.13;;;;;;;;;;4910807;29;20040;-72
2021/06/25 17:12:09;;;;;;;21.33;4.43;;;;;;;;;;4914202;29;20030;-76
2021/06/25 17:14:35;;;;;;;22.52;4.85;;;;;;;;;;4916710;29;20111;-75
2021/06/25 17:17:01;;;;;;;18.02;4.82;;;;;;;;;;4916315;29;20040;-75
2021/06/25 17:19:27;;;;;;;20.50;4.88;;;;;;;;;;4915876;29;20508;-73
2021/06/25 17:21:54;;;;;;;20.17;4.70;;;;;;;;;;4899507;29;20507;-72
2021/06/25 17:24:20;;;;;;;18.27;3.92;;;;;;;;;;4916731;29;20058;-74
2021/06/25 17:26:46;;;;;;;19.73;4.40;;;;;;;;;;4915201;29;20059;-74
2021/06/25 17:29:12;;;;;;;18.65;4.80;;;;;;;;;;4915571;29;20029;-74
2021/06/25 17:31:38;;;;;;;25.42;4.55;;;;;;;;;;4916299;29;20031;-74
2021/06/25 17:34:04;;;;;;;16.73;4.43;;;;;;;;;;4915476;29;20028;-75
2021/06/25 17:36:31;;;;;;;22.58;4.18;;;;;;;;;;4915678;29;20032;-74
2021/06/25 17:38:57;;;;;;;21.65;5.53;;;;;;;;;;4915891;29;20477;-73
2021/06/25 17:41:23;;;;;;;24.85;4.75;;;;;;;;;;4915844;29;20052;-73
2021/06/25 17:43:49;;;;;;;22.45;4.03;;;;;;;;;;4916039;29;20032;-74
2021/06/25 17:46:15;;;;;;;22.60;4.50;;;;;;;;;;4916432;29;20028;-75
2021/06/25 17:48:41;;;;;;;19.50;4.40;;;;;;;;;;4916268;29;20028;-74
2021/06/25 17:51:08;;;;;;;23.00;4.40;;;;;;;;;;4916092;29;20060;-75
2021/06/25 17:53:37;;;;;;;22.17;4.75;;;;;;;;;;4916342;29;20032;-75
2021/06/25 17:56:03;;;;;;;25.48;4.65;;;;;;;;;;4915293;29;20028;-76
2021/06/25 17:58:29;;;;;;;19.65;4.78;;;;;;;;;;4915267;29;20036;-75
2021/06/25 18:00:56;;;;;;;22.00;5.13;;;;;;;;;;4915377;29;20028;-74
2021/06/25 18:03:22;;;;;;;21.45;5.13;;;;;;;;;;4915917;29;20032;-75
2021/06/25 18:05:48;;;;;;;23.25;5.72;;;;;;;;;;4915318;29;20501;-75
2021/06/25 18:08:14;;;;;;;20.25;5.07;;;;;;;;;;4915262;29;20028;-76
2021/06/25 18:10:40;;;;;;;19.67;4.43;;;;;;;;;;4914966;29;20476;-74
2021/06/25 18:13:06;;;;;;;22.35;5.22;;;;;;;;;;4915568;29;20032;-74
2021/06/25 18:15:34;;;;;;;18.58;5.07;;;;;;;;;;4915393;29;20047;-75
2021/06/25 18:18:04;;;;;;;21.88;4.47;;;;;;;;;;4915345;29;20432;-75
2021/06/25 18:20:32;;;;;;;21.52;5.32;;;;;;;;;;4914644;29;20024;-75
2021/06/25 18:22:58;;;;;;;21.17;4.70;;;;;;;;;;4913450;29;20111;-71
2021/06/25 18:25:24;;;;;;;21.20;4.60;;;;;;;;;;4915547;29;20024;-72
2021/06/25 18:27:50;;;;;;;17.38;4.55;;;;;;;;;;4915413;29;20523;-71
2021/06/25 18:30:17;;;;;;;19.70;4.85;;;;;;;;;;4915328;29;20168;-74
2021/06/25 18:32:43;;;;;;;19.33;4.78;;;;;;;;;;4914822;29;20040;-73
2021/06/25 18:35:10;;;;;;;21.17;4.30;;;;;;;;;;4914791;29;20129;-73
2021/06/25 18:37:36;;;;;;;17.38;4.22;;;;;;;;;;4915481;29;20139;-72
2021/06/25 18:40:03;;;;;;;24.25;5.22;;;;;;;;;;4913243;29;20040;-72
2021/06/25 18:42:29;;;;;;;21.92;5.00;;;;;;;;;;4913423;29;20131;-74
2021/06/25 18:44:55;;;;;;;15.00;3.60;;;;;;;;;;4913532;29;20507;-73
2021/06/25 18:47:21;;;;;;;22.38;4.30;;;;;;;;;;4913420;29;20448;-71
2021/06/25 18:49:47;;;;;;;20.58;4.25;;;;;;;;;;4913394;29;20036;-73
2021/06/25 18:52:13;;;;;;;23.52;5.05;;;;;;;;;;4913250;29;20032;-74
2021/06/25 18:54:40;;;;;;;22.05;3.83;;;;;;;;;;4896437;29;20052;-73
2021/06/25 18:57:07;;;;;;;23.02;4.65;;;;;;;;;;4913025;29;20024;-73
2021/06/25 18:59:34;;;;;;;21.90;4.53;;;;;;;;;;4913465;29;20052;-73
2021/06/25 19:02:01;;;;;;;19.30;4.65;;;;;;;;;;4912907;29;20020;-73
2021/06/25 19:04:27;;;;;;;18.50;5.15;;;;;;;;;;4893108;29;20032;-74
2021/06/25 19:06:54;;;;;;;24.58;5.85;;;;;;;;;;4911011;29;20504;-73
2021/06/25 19:09:20;;;;;;;21.52;4.93;;;;;;;;;;4909690;29;20036;-72
2021/06/25 19:11:47;;;;;;;17.65;4.50;;;;;;;;;;4910037;29;20040;-75
2021/06/25 19:14:13;;;;;;;19.75;4.97;;;;;;;;;;4911285;29;20048;-73
2021/06/25 19:16:39;;;;;;;18.42;5.35;;;;;;;;;;4913171;29;20483;-75
2021/06/25 19:19:18;;;;;;;26.65;6.28;;;;;;;;;;4912559;29;20092;-73
2021/06/25 19:21:46;;;;;;;23.15;5.18;;;;;;;;;;4896108;29;20437;-74
2021/06/25 19:24:12;;;;;;;23.92;5.15;;;;;;;;;;4913280;29;20079;-75
2021/06/25 19:26:38;;;;;;;15.10;4.32;;;;;;;;;;4911140;29;20455;-74
2021/06/25 19:32:08;;;;;;;15.23;4.07;;;;;;;;;;4905162;29;20047;-75
2021/06/25 19:34:35;;;;;;;23.95;5.95;;;;;;;;;;4912388;29;20027;-74
2021/06/25 19:37:01;;;;;;;30.35;14.85;;;;;;;;;;4913279;29;20400;-74
2021/06/25 19:39:27;;;;;;;30.13;9.45;;;;;;;;;;4913296;29;20028;-74
2021/06/25 19:41:53;;;;;;;20.48;6.70;;;;;;;;;;4913224;29;20504;-73
2021/06/25 19:44:19;;;;;;;18.35;4.82;;;;;;;;;;4914592;29;20115;-72
2021/06/25 19:46:45;;;;;;;30.48;6.40;;;;;;;;;;4914279;29;20080;-73
2021/06/25 19:49:11;;;;;;;15.65;4.47;;;;;;;;;;4914194;29;20416;-73
2021/06/25 19:51:37;;;;;;;20.42;4.32;;;;;;;;;;4917515;29;20111;-72
2021/06/25 19:54:03;;;;;;;18.13;5.32;;;;;;;;;;4917750;29;20058;-72
2021/06/25 19:56:31;;;;;;;30.98;13.63;;;;;;;;;;4915145;29;20168;-71
2021/06/25 19:58:57;;;;;;;123.90;73.07;;;;;;;;;;4916981;29;20024;-72
2021/06/25 20:01:23;;;;;;;130.18;74.68;;;;;;;;;;4900963;29;20091;-72
2021/06/25 20:03:49;;;;;;;64.15;34.95;;;;;;;;;;4917691;29;20032;-72
2021/06/25 20:06:15;;;;;;;34.53;9.35;;;;;;;;;;4917917;29;20024;-73
2021/06/25 20:08:42;;;;;;;22.35;5.93;;;;;;;;;;4917455;29;20020;-70
2021/06/25 20:11:08;;;;;;;22.02;6.30;;;;;;;;;;4917420;29;20035;-73
2021/06/25 20:13:37;;;;;;;27.27;6.22;;;;;;;;;;4917470;29;20032;-73
2021/06/25 20:16:03;;;;;;;21.98;6.68;;;;;;;;;;4917647;29;20051;-73
2021/06/25 20:18:29;;;;;;;21.98;6.97;;;;;;;;;;4917352;29;20171;-71
2021/06/25 20:20:55;;;;;;;25.85;6.78;;;;;;;;;;4916858;29;20024;-73
2021/06/25 20:23:22;;;;;;;28.42;9.82;;;;;;;;;;4917631;29;20119;-73
2021/06/25 20:25:49;;;;;;;25.20;8.75;;;;;;;;;;4917566;29;20368;-73
2021/06/25 20:28:15;;;;;;;29.63;8.80;;;;;;;;;;4917449;29;20070;-73
2021/06/25 20:30:41;;;;;;;26.45;8.07;;;;;;;;;;4917667;29;20115;-72